createdAt,value
2022-08-07T12:14:09.699Z,33.80
2022-08-07T12:15:17.339Z,33.90
2022-08-07T12:16:10.035Z,33.70
2022-08-07T12:17:08.965Z,32.70
2022-08-07T12:18:11.208Z,31.90
2022-08-07T12:19:08.945Z,30.20
2022-08-07T12:20:18.522Z,29.20
2022-08-07T12:21:09.922Z,29.00
2022-08-07T12:22:37.043Z,28.00
2022-08-07T12:23:09.889Z,27.70
2022-08-07T12:24:36.893Z,27.00
2022-08-07T12:25:09.937Z,27.20
2022-08-07T12:26:28.919Z,27.00
2022-08-07T12:27:15.792Z,27.50
2022-08-07T12:28:10.868Z,27.00
2022-08-07T12:29:08.841Z,27.30
2022-08-07T12:30:08.904Z,26.80
2022-08-07T12:31:09.361Z,27.30
2022-08-07T12:32:12.539Z,27.50
2022-08-07T12:33:18.775Z,27.20
2022-08-07T12:34:11.232Z,25.50
2022-08-07T12:35:08.833Z,25.00
2022-08-07T12:36:10.966Z,24.80
2022-08-07T12:37:16.944Z,24.80
2022-08-07T12:38:16.144Z,24.20
2022-08-07T12:39:44.302Z,23.70
2022-08-07T12:40:24.168Z,24.00
2022-08-07T12:41:10.050Z,23.70
2022-08-07T12:42:08.732Z,23.50
2022-08-07T12:43:09.845Z,23.20
2022-08-07T12:44:12.890Z,23.40
2022-08-07T12:45:09.754Z,23.20
2022-08-07T12:46:09.316Z,23.50
2022-08-07T12:47:08.680Z,23.60
2022-08-07T12:48:13.373Z,24.10
2022-08-07T12:49:10.284Z,23.40
2022-08-07T12:50:38.954Z,23.40
2022-08-07T12:51:13.185Z,24.00
2022-08-07T12:52:14.483Z,24.40
2022-08-07T12:53:18.219Z,25.10
2022-08-07T12:54:38.448Z,25.40
2022-08-07T12:55:16.496Z,25.60
2022-08-07T12:56:09.578Z,26.20
2022-08-07T12:57:09.562Z,26.30
2022-08-07T12:58:08.575Z,25.70
2022-08-07T12:59:08.696Z,26.00
2022-08-07T13:00:16.263Z,26.40
2022-08-07T13:01:09.607Z,26.30
2022-08-07T13:02:09.767Z,26.00
2022-08-07T13:03:13.048Z,26.10
2022-08-07T13:04:09.753Z,26.00
2022-08-07T13:05:14.809Z,26.30
2022-08-07T13:06:21.675Z,26.10
2022-08-07T13:07:09.458Z,25.60
2022-08-07T13:08:14.674Z,25.00
2022-08-07T13:09:12.551Z,25.00
2022-08-07T13:10:21.617Z,24.70
2022-08-07T13:11:09.437Z,23.80
2022-08-07T13:12:10.107Z,24.10
2022-08-07T13:13:08.414Z,23.90
2022-08-07T13:14:08.406Z,24.20
2022-08-07T13:15:08.426Z,24.00
2022-08-07T13:16:08.381Z,23.60
2022-08-07T13:17:08.353Z,23.30
2022-08-07T13:18:08.352Z,22.40
2022-08-07T13:19:18.165Z,22.00
2022-08-07T13:20:09.375Z,22.00
2022-08-07T13:21:08.356Z,21.30
2022-08-07T13:22:19.316Z,20.80
2022-08-07T13:23:59.802Z,20.70
2022-08-07T13:24:11.492Z,20.40
2022-08-07T13:25:08.339Z,20.10
2022-08-07T13:26:10.504Z,19.90
2022-08-07T13:27:09.306Z,20.10
2022-08-07T13:28:13.583Z,20.20
2022-08-07T13:29:09.256Z,20.30
2022-08-07T13:30:08.277Z,20.70
2022-08-07T13:31:13.030Z,20.30
2022-08-07T13:32:31.845Z,19.50
2022-08-07T13:34:14.777Z,19.70
2022-08-07T13:34:31.060Z,19.00
2022-08-07T13:35:09.379Z,19.20
2022-08-07T13:36:08.222Z,18.80
2022-08-07T13:37:10.671Z,18.30
2022-08-07T13:38:08.286Z,18.80
2022-08-07T13:39:12.939Z,18.60
2022-08-07T13:40:35.529Z,17.70
2022-08-07T13:41:09.189Z,18.00
2022-08-07T13:42:08.131Z,18.60
2022-08-07T13:43:12.039Z,18.30
2022-08-07T13:44:10.351Z,18.00
2022-08-07T13:46:07.366Z,17.80
2022-08-07T13:46:23.194Z,18.10
2022-08-07T13:47:09.237Z,18.30
2022-08-07T13:48:20.496Z,17.90
2022-08-07T13:50:33.119Z,17.50
2022-08-07T13:50:34.308Z,17.30
2022-08-07T13:51:26.870Z,18.30
2022-08-07T13:52:32.227Z,17.80
2022-08-07T13:53:09.011Z,18.60
2022-08-07T13:54:09.067Z,18.30
2022-08-07T13:55:10.755Z,18.30
2022-08-07T13:56:08.058Z,18.10
2022-08-07T13:57:08.118Z,18.40
2022-08-07T13:58:08.019Z,18.10
2022-08-07T13:59:10.396Z,18.30
2022-08-07T14:00:07.924Z,18.90
2022-08-07T14:01:10.019Z,19.30
2022-08-07T14:02:07.992Z,18.60
2022-08-07T14:03:07.976Z,18.30
2022-08-07T14:04:08.909Z,17.50
2022-08-07T14:05:07.926Z,16.90
2022-08-07T14:06:07.922Z,15.90
2022-08-07T14:07:09.791Z,15.20
2022-08-07T14:08:07.991Z,14.60
2022-08-07T14:09:07.832Z,14.30
2022-08-07T14:10:23.117Z,14.10
2022-08-07T14:11:15.202Z,13.40
2022-08-07T14:12:10.401Z,13.10
2022-08-07T14:13:07.873Z,12.70
2022-08-07T14:14:07.787Z,12.60
2022-08-07T14:15:07.760Z,12.30
2022-08-07T14:16:15.169Z,12.40
2022-08-07T14:17:32.401Z,12.60
2022-08-07T14:18:27.531Z,12.60
2022-08-07T14:19:08.824Z,12.50
2022-08-07T14:20:42.448Z,13.10
2022-08-07T14:21:20.711Z,13.60
2022-08-07T14:22:11.678Z,13.50
2022-08-07T14:23:09.124Z,12.50
2022-08-07T14:24:07.766Z,12.10
2022-08-07T14:25:08.230Z,12.00
2022-08-07T14:26:07.685Z,11.00
2022-08-07T14:28:09.836Z,10.80
2022-08-07T14:28:13.157Z,10.70
2022-08-07T14:30:06.340Z,10.90
2022-08-07T14:31:08.635Z,10.60
2022-08-07T14:32:07.682Z,10.30
2022-08-07T14:33:07.606Z,10.20
2022-08-07T14:34:07.618Z,10.20
2022-08-07T14:35:07.567Z,10.00
2022-08-07T14:36:07.605Z,9.90
2022-08-07T14:37:07.563Z,9.80
2022-08-07T14:38:08.535Z,9.80
2022-08-07T14:39:08.694Z,9.90
2022-08-07T14:40:16.978Z,9.90
2022-08-07T14:41:12.202Z,9.70
2022-08-07T14:42:19.532Z,9.70
2022-08-07T14:43:57.847Z,9.80
2022-08-07T14:44:10.090Z,9.70
2022-08-07T14:46:08.501Z,9.80
2022-08-07T14:47:14.681Z,9.80
2022-08-07T14:48:08.424Z,10.20
2022-08-07T14:50:11.235Z,9.90
2022-08-07T14:51:07.453Z,9.70
2022-08-07T14:52:10.345Z,10.00
2022-08-07T14:53:08.146Z,9.70
2022-08-07T14:54:30.538Z,9.70
2022-08-07T14:55:08.845Z,9.80
2022-08-07T14:56:07.394Z,9.90
2022-08-07T14:57:08.341Z,9.90
2022-08-07T14:58:07.351Z,9.90
2022-08-07T14:59:14.152Z,9.90
2022-08-07T15:00:08.381Z,10.30
2022-08-07T15:01:21.786Z,10.10
2022-08-07T15:02:08.296Z,9.90
2022-08-07T15:03:18.785Z,10.30
2022-08-07T15:04:08.298Z,10.30
2022-08-07T15:05:19.606Z,10.20
2022-08-07T15:06:08.954Z,10.20
2022-08-07T15:07:17.829Z,9.60
2022-08-07T15:08:08.329Z,9.70
2022-08-07T15:09:59.648Z,9.20
2022-08-07T15:10:11.283Z,9.30
2022-08-07T15:11:07.236Z,9.50
2022-08-07T15:12:07.272Z,9.20
2022-08-07T15:13:11.773Z,9.20
2022-08-07T15:14:10.143Z,8.90
2022-08-07T15:15:08.669Z,9.50
2022-08-07T15:16:11.090Z,8.30
2022-08-07T15:17:07.154Z,8.20
2022-08-07T15:18:14.268Z,9.30
2022-08-07T15:19:08.093Z,10.20
2022-08-07T15:20:31.468Z,13.30
2022-08-07T15:21:44.003Z,10.00
2022-08-07T15:25:13.545Z,18.10
2022-08-07T15:25:18.408Z,16.80
2022-08-07T15:26:08.089Z,18.40
2022-08-07T15:27:07.014Z,12.10
2022-08-07T15:28:33.041Z,12.70
2022-08-07T15:30:10.334Z,16.00
2022-08-07T15:30:16.465Z,15.80
2022-08-07T15:31:07.964Z,22.10
2022-08-07T15:32:07.015Z,21.90
2022-08-07T15:34:12.406Z,31.10
2022-08-07T15:35:07.943Z,38.50
2022-08-07T15:36:06.938Z,59.60
2022-08-07T15:37:07.119Z,51.80
2022-08-07T15:39:10.412Z,56.30
2022-08-07T15:40:11.457Z,66.60
2022-08-07T15:41:23.713Z,94.50
2022-08-07T15:42:46.802Z,86.70
2022-08-07T15:43:07.841Z,73.40
2022-08-07T15:44:07.154Z,101.70
2022-08-07T15:46:31.484Z,104.90
2022-08-07T15:48:07.784Z,130.80
2022-08-07T15:49:14.437Z,138.90
2022-08-07T15:50:07.793Z,216.90
2022-08-07T15:51:09.529Z,254.00
2022-08-07T15:52:07.862Z,251.10
2022-08-07T15:53:06.744Z,245.20
2022-08-07T15:54:06.706Z,262.40
2022-08-07T15:55:08.973Z,370.40
2022-08-07T15:56:06.680Z,398.20
2022-08-07T15:57:06.778Z,403.80
2022-08-07T15:58:08.528Z,402.50
2022-08-07T15:59:16.539Z,397.20
2022-08-07T16:00:07.653Z,418.10
2022-08-07T16:01:06.708Z,459.50
2022-08-07T16:02:06.740Z,470.90
2022-08-07T16:03:06.641Z,549.60
2022-08-07T16:04:11.309Z,556.80
2022-08-07T16:05:15.562Z,597.10
2022-08-07T16:06:07.596Z,592.50
2022-08-07T16:08:30.907Z,582.80
2022-08-07T16:08:31.234Z,593.20
2022-08-07T16:09:07.753Z,547.00
2022-08-07T16:10:06.544Z,470.90
2022-08-07T16:11:26.214Z,471.80
2022-08-07T16:12:07.574Z,505.30
2022-08-07T16:13:17.882Z,533.70
2022-08-07T16:14:09.523Z,582.70
2022-08-07T16:15:06.474Z,589.60
2022-08-07T16:16:42.954Z,604.30
2022-08-07T16:17:15.961Z,603.00
2022-08-07T16:18:07.469Z,616.50
2022-08-07T16:19:06.444Z,593.80
2022-08-07T16:20:06.505Z,584.60
2022-08-07T16:22:01.156Z,565.80
2022-08-07T16:22:19.201Z,538.10
2022-08-07T16:23:09.932Z,438.30
2022-08-07T16:24:09.178Z,472.80
2022-08-07T16:25:07.551Z,493.80
2022-08-07T16:26:06.388Z,492.40
2022-08-07T16:27:18.268Z,502.90
2022-08-07T16:28:11.478Z,485.20
2022-08-07T16:30:07.194Z,462.80
2022-08-07T16:30:29.787Z,475.40
2022-08-07T16:31:09.947Z,442.10
2022-08-07T16:32:06.395Z,450.70
2022-08-07T16:34:01.954Z,441.40
2022-08-07T16:34:10.391Z,431.00
2022-08-07T16:35:57.046Z,450.80
2022-08-07T16:36:07.255Z,442.50
2022-08-07T16:38:04.079Z,435.00
2022-08-07T16:38:11.372Z,442.60
2022-08-07T16:39:06.312Z,434.30
2022-08-07T16:40:06.309Z,428.20
2022-08-07T16:41:06.273Z,438.50
2022-08-07T16:42:06.239Z,473.30
2022-08-07T16:43:06.193Z,478.00
2022-08-07T16:44:46.260Z,471.70
2022-08-07T16:45:15.462Z,524.00
2022-08-07T16:46:47.584Z,534.30
2022-08-07T16:47:16.382Z,521.20
2022-08-07T16:48:07.126Z,540.50
2022-08-07T16:50:20.147Z,515.50
2022-08-07T16:50:20.466Z,543.40
2022-08-07T16:51:21.802Z,537.30
2022-08-07T16:52:49.130Z,571.00
2022-08-07T16:53:48.204Z,559.70
2022-08-07T16:54:09.583Z,548.30
2022-08-07T16:55:08.560Z,554.50
2022-08-07T16:56:07.020Z,559.10
2022-08-07T16:57:06.059Z,506.00
2022-08-07T16:58:08.035Z,480.90
2022-08-07T16:59:14.125Z,487.20
2022-08-07T17:00:08.497Z,496.10
2022-08-07T17:01:08.067Z,519.30
2022-08-07T17:02:06.033Z,503.00
2022-08-07T17:03:06.290Z,502.50
2022-08-07T17:04:06.003Z,488.60
2022-08-07T17:05:05.941Z,516.90
2022-08-07T17:06:30.019Z,497.30
2022-08-07T17:07:06.971Z,476.60
2022-08-07T17:08:05.891Z,455.40
2022-08-07T17:09:10.861Z,492.30
2022-08-07T17:10:09.268Z,521.60
2022-08-07T17:11:06.859Z,524.70
2022-08-07T17:12:36.849Z,523.90
2022-08-07T17:13:08.450Z,517.80
2022-08-07T17:14:19.049Z,516.50
2022-08-07T17:15:06.822Z,519.70
2022-08-07T17:16:05.803Z,521.60
2022-08-07T17:17:05.824Z,512.60
2022-08-07T17:18:05.786Z,521.30
2022-08-07T17:19:05.774Z,516.10
2022-08-07T17:20:13.993Z,510.50
2022-08-07T17:21:18.504Z,512.00
2022-08-07T17:22:06.786Z,526.00
2022-08-07T17:23:11.422Z,534.00
2022-08-07T17:24:07.023Z,528.90
2022-08-07T17:25:08.137Z,522.90
2022-08-07T17:26:05.688Z,523.00
2022-08-07T17:27:06.718Z,531.30
2022-08-07T17:28:06.716Z,563.10
2022-08-07T17:29:05.648Z,562.70
2022-08-07T17:30:13.890Z,564.10
2022-08-07T17:31:16.241Z,541.70
2022-08-07T17:32:06.647Z,550.90
2022-08-07T17:33:05.618Z,538.20
2022-08-07T17:34:18.212Z,540.10
2022-08-07T17:35:51.508Z,525.60
2022-08-07T17:36:13.397Z,518.40
2022-08-07T17:37:09.578Z,519.30
2022-08-07T17:38:11.616Z,511.00
2022-08-07T17:39:10.082Z,492.00
2022-08-07T17:40:08.175Z,489.50
2022-08-07T17:42:01.121Z,479.90
2022-08-07T17:42:07.420Z,494.00
2022-08-07T17:43:15.119Z,486.10
2022-08-07T17:44:14.013Z,470.80
2022-08-07T17:45:06.475Z,464.00
2022-08-07T17:46:06.466Z,456.40
2022-08-07T17:47:05.532Z,456.00
2022-08-07T17:48:05.443Z,457.90
2022-08-07T17:49:09.206Z,465.10
2022-08-07T17:50:05.406Z,460.80
2022-08-07T17:51:05.552Z,459.40
2022-08-07T17:52:05.453Z,461.30
2022-08-07T17:53:06.392Z,461.90
2022-08-07T17:54:06.343Z,466.80
2022-08-07T17:55:05.327Z,465.30
2022-08-07T17:56:06.928Z,460.80
2022-08-07T17:57:17.507Z,448.20
2022-08-07T17:58:06.312Z,435.50
2022-08-07T17:59:05.314Z,425.30
2022-08-07T18:00:05.290Z,411.00
2022-08-07T18:01:05.302Z,425.80
2022-08-07T18:02:06.361Z,432.20
2022-08-07T18:03:09.275Z,616.70
2022-08-07T18:04:07.806Z,616.50
2022-08-07T18:05:21.409Z,613.00
2022-08-07T18:06:06.421Z,640.10
2022-08-07T18:07:20.816Z,632.40
2022-08-07T18:08:06.914Z,652.90
2022-08-07T18:09:06.475Z,661.70
2022-08-07T18:10:10.349Z,663.90
2022-08-07T18:12:17.447Z,655.70
2022-08-07T18:12:17.474Z,661.00
2022-08-07T18:13:06.142Z,644.00
2022-08-07T18:14:05.127Z,642.80
2022-08-07T18:15:08.375Z,637.40
2022-08-07T18:16:05.119Z,635.80
2022-08-07T18:17:05.381Z,580.40
2022-08-07T18:18:45.377Z,562.10
2022-08-07T18:21:11.604Z,572.80
2022-08-07T18:21:11.784Z,582.70
2022-08-07T18:21:42.312Z,578.90
2022-08-07T18:22:14.945Z,573.40
2022-08-07T18:23:06.027Z,585.00
2022-08-07T18:24:06.971Z,594.50
2022-08-07T18:25:23.925Z,597.50
2022-08-07T18:26:05.995Z,587.20
2022-08-07T18:27:06.436Z,582.40
2022-08-07T18:28:05.018Z,580.20
2022-08-07T18:29:04.965Z,590.10
2022-08-07T18:30:32.711Z,617.00
2022-08-07T18:31:05.955Z,622.00
2022-08-07T18:32:05.004Z,622.40
2022-08-07T18:33:10.401Z,611.60
2022-08-07T18:34:05.898Z,628.70
2022-08-07T18:35:05.887Z,594.70
2022-08-07T18:36:06.103Z,590.00
2022-08-07T18:37:09.385Z,602.40
2022-08-07T18:38:55.628Z,590.40
2022-08-07T18:40:05.384Z,601.60
2022-08-07T18:40:18.575Z,592.90
2022-08-07T18:41:10.297Z,589.70
2022-08-07T18:42:05.888Z,596.40
2022-08-07T18:43:05.786Z,601.50
2022-08-07T18:44:04.799Z,597.80
2022-08-07T18:45:44.124Z,588.30
2022-08-07T18:46:25.331Z,580.30
2022-08-07T18:47:05.801Z,590.50
2022-08-07T18:48:04.748Z,579.30
2022-08-07T18:50:30.306Z,574.80
2022-08-07T18:50:37.777Z,567.70
2022-08-07T18:51:05.704Z,562.80
2022-08-07T18:52:34.834Z,572.20
2022-08-07T18:53:06.357Z,566.40
2022-08-07T18:54:04.686Z,554.80
2022-08-07T18:55:41.932Z,543.90
2022-08-07T18:56:06.100Z,541.90
2022-08-07T18:57:29.402Z,537.20
2022-08-07T18:58:05.621Z,515.70
2022-08-07T18:59:04.744Z,508.30
2022-08-07T19:00:33.480Z,506.50
2022-08-07T19:01:05.601Z,516.80
2022-08-07T19:02:18.214Z,590.10
2022-08-07T19:03:11.841Z,602.70
2022-08-07T19:04:09.584Z,608.60
2022-08-07T19:05:15.165Z,589.20
2022-08-07T19:06:05.582Z,529.30
2022-08-07T19:07:08.224Z,492.70
2022-08-07T19:08:05.610Z,554.50
2022-08-07T19:09:09.408Z,562.20
2022-08-07T19:10:05.497Z,567.10
2022-08-07T19:11:34.985Z,560.40
2022-08-07T19:12:05.716Z,572.00
2022-08-07T19:13:10.272Z,574.00
2022-08-07T19:14:08.167Z,566.80
2022-08-07T19:16:03.719Z,580.50
2022-08-07T19:17:04.664Z,562.50
2022-08-07T19:17:11.616Z,546.70
2022-08-07T19:18:05.710Z,556.10
2022-08-07T19:19:04.382Z,579.90
2022-08-07T19:20:04.519Z,568.50
2022-08-07T19:21:09.651Z,609.20
2022-08-07T19:22:05.409Z,595.90
2022-08-07T19:23:18.910Z,604.40
2022-08-07T19:24:05.368Z,566.10
2022-08-07T19:25:05.630Z,559.70
2022-08-07T19:26:22.846Z,591.90
2022-08-07T19:28:30.006Z,576.50
2022-08-07T19:28:57.063Z,515.90
2022-08-07T19:31:00.136Z,561.70
2022-08-07T19:31:05.607Z,507.60
2022-08-07T19:31:37.384Z,580.50
2022-08-07T19:32:25.712Z,510.60
2022-08-07T19:33:13.066Z,528.60
2022-08-07T19:34:05.262Z,496.30
2022-08-07T19:35:04.208Z,514.50
2022-08-07T19:36:04.218Z,602.90
2022-08-07T19:37:10.067Z,657.50
2022-08-07T19:38:05.164Z,626.50
2022-08-07T19:39:09.106Z,623.40
2022-08-07T19:40:04.200Z,621.50
2022-08-07T19:41:04.145Z,563.40
2022-08-07T19:42:08.183Z,592.30
2022-08-07T19:43:05.109Z,589.40
2022-08-07T19:44:04.091Z,551.50
2022-08-07T19:45:08.433Z,542.00
2022-08-07T19:46:07.645Z,565.70
2022-08-07T19:47:05.089Z,578.90
2022-08-07T19:48:04.070Z,567.00
2022-08-07T19:49:05.066Z,561.60
2022-08-07T19:50:40.683Z,542.60
2022-08-07T19:51:05.017Z,560.30
2022-08-07T19:52:05.053Z,545.90
2022-08-07T19:54:33.984Z,535.30
2022-08-07T19:54:34.119Z,545.70
2022-08-07T19:55:04.964Z,538.50
2022-08-07T19:56:04.950Z,525.50
2022-08-07T19:58:02.616Z,525.50
2022-08-07T19:58:14.264Z,531.50
2022-08-07T19:59:04.932Z,533.00
2022-08-07T20:00:03.913Z,532.20
2022-08-07T20:01:04.897Z,538.00
2022-08-07T20:02:03.952Z,596.90
2022-08-07T20:03:03.942Z,594.80
2022-08-07T20:04:03.900Z,604.50
2022-08-07T20:05:03.870Z,584.00
2022-08-07T20:06:03.855Z,585.60
2022-08-07T20:07:03.900Z,592.40
2022-08-07T20:08:04.849Z,611.00
2022-08-07T20:09:03.807Z,593.30
2022-08-07T20:10:33.463Z,552.00
2022-08-07T20:11:09.929Z,565.30
2022-08-07T20:12:31.394Z,593.90
2022-08-07T20:13:06.153Z,578.30
2022-08-07T20:14:03.752Z,523.20
2022-08-07T20:15:03.783Z,542.00
2022-08-07T20:16:03.726Z,583.40
2022-08-07T20:17:03.724Z,595.00
2022-08-07T20:18:04.391Z,496.60
2022-08-07T20:19:04.493Z,521.80
2022-08-07T20:20:03.704Z,542.70
2022-08-07T20:21:03.652Z,620.90
2022-08-07T20:22:05.912Z,534.60
2022-08-07T20:23:23.191Z,482.20
2022-08-07T20:24:04.639Z,469.10
2022-08-07T20:25:03.663Z,463.10
2022-08-07T20:26:03.626Z,520.70
2022-08-07T20:27:04.608Z,506.80
2022-08-07T20:28:05.755Z,485.20
2022-08-07T20:29:10.224Z,501.90
2022-08-07T20:30:10.952Z,498.70
2022-08-07T20:31:04.558Z,455.40
2022-08-07T20:32:03.606Z,447.90
2022-08-07T20:33:03.534Z,430.00
2022-08-07T20:34:03.524Z,443.80
2022-08-07T20:35:07.772Z,488.70
2022-08-07T20:36:03.851Z,498.60
2022-08-07T20:37:03.550Z,513.60
2022-08-07T20:38:03.488Z,472.50
2022-08-07T20:39:30.589Z,448.20
2022-08-07T20:40:31.486Z,456.00
2022-08-07T20:41:05.503Z,452.40
2022-08-07T20:42:03.465Z,433.60
2022-08-07T20:43:03.420Z,464.60
2022-08-07T20:44:04.421Z,455.40
2022-08-07T20:45:32.854Z,446.70
2022-08-07T20:46:24.613Z,430.30
2022-08-07T20:47:09.182Z,447.70
2022-08-07T20:48:04.378Z,437.90
2022-08-07T20:50:00.965Z,415.10
2022-08-07T20:50:04.345Z,416.60
2022-08-07T20:51:03.343Z,404.30
2022-08-07T20:52:09.297Z,395.20
2022-08-07T20:53:04.634Z,403.10
2022-08-07T20:54:08.528Z,395.50
2022-08-07T20:55:04.348Z,495.20
2022-08-07T20:56:03.286Z,466.10
2022-08-07T20:57:03.257Z,481.00
2022-08-07T20:58:08.858Z,409.70
2022-08-07T20:59:05.063Z,483.10
2022-08-07T21:00:07.167Z,653.40
2022-08-07T21:01:04.241Z,600.90
2022-08-07T21:02:03.290Z,596.00
2022-08-07T21:03:04.262Z,607.00
2022-08-07T21:04:22.960Z,596.00
2022-08-07T21:05:04.670Z,559.70
2022-08-07T21:06:04.156Z,572.60
2022-08-07T21:07:14.351Z,546.70
2022-08-07T21:08:04.178Z,461.70
2022-08-07T21:09:03.162Z,514.70
2022-08-07T21:10:03.126Z,562.50
2022-08-07T21:11:03.124Z,554.00
2022-08-07T21:12:03.094Z,559.70
2022-08-07T21:13:03.122Z,576.00
2022-08-07T21:14:29.780Z,523.50
2022-08-07T21:15:04.067Z,513.00
2022-08-07T21:16:03.056Z,528.70
2022-08-07T21:18:00.385Z,518.00
2022-08-07T21:18:09.023Z,527.80
2022-08-07T21:19:04.116Z,537.30
2022-08-07T21:20:05.509Z,530.10
2022-08-07T21:21:02.979Z,529.10
2022-08-07T21:22:02.967Z,529.00
2022-08-07T21:23:07.653Z,531.30
2022-08-07T21:24:03.927Z,548.30
2022-08-07T21:25:04.768Z,543.20
2022-08-07T21:26:03.905Z,548.70
2022-08-07T21:27:02.900Z,540.20
2022-08-07T21:28:02.957Z,533.00
2022-08-07T21:29:02.886Z,550.00
2022-08-07T21:30:02.868Z,549.40
2022-08-07T21:31:02.892Z,564.20
2022-08-07T21:32:46.897Z,572.10
2022-08-07T21:33:03.833Z,607.00
2022-08-07T21:34:02.857Z,607.00
2022-08-07T21:35:02.820Z,599.50
2022-08-07T21:36:06.475Z,631.10
2022-08-07T21:37:03.837Z,605.00
2022-08-07T21:38:02.933Z,626.10
2022-08-07T21:39:02.769Z,567.30
2022-08-07T21:40:03.836Z,656.00
2022-08-07T21:41:05.798Z,605.30
2022-08-07T21:42:14.848Z,680.50
2022-08-07T21:43:03.767Z,675.00
2022-08-07T21:44:03.626Z,667.90
2022-08-07T21:46:03.520Z,690.00
2022-08-07T21:46:10.341Z,686.30
2022-08-07T21:47:03.693Z,678.90
2022-08-07T21:48:02.692Z,688.40
2022-08-07T21:49:02.645Z,675.80
2022-08-07T21:50:03.582Z,691.10
2022-08-07T21:51:02.629Z,688.60
2022-08-07T21:52:02.621Z,677.20
2022-08-07T21:53:07.700Z,705.20
2022-08-07T21:54:03.620Z,716.20
2022-08-07T21:55:02.599Z,696.70
2022-08-07T21:56:02.572Z,717.70
2022-08-07T21:57:02.645Z,713.20
2022-08-07T21:58:03.129Z,696.50
2022-08-07T21:59:02.543Z,675.40
2022-08-07T22:00:03.554Z,682.00
2022-08-07T22:01:02.521Z,656.80
2022-08-07T22:02:07.357Z,649.40
2022-08-07T22:03:06.244Z,648.50
2022-08-07T22:04:02.813Z,724.30
2022-08-07T22:05:02.488Z,635.40
2022-08-07T22:06:02.464Z,632.40
2022-08-07T22:07:02.451Z,682.20
2022-08-07T22:08:02.478Z,730.60
2022-08-07T22:09:02.429Z,653.40
2022-08-07T22:10:02.451Z,656.50
2022-08-07T22:11:02.399Z,644.80
2022-08-07T22:12:06.926Z,620.80
2022-08-07T22:13:03.420Z,607.40
2022-08-07T22:14:04.976Z,610.30
2022-08-07T22:15:02.348Z,669.50
2022-08-07T22:16:38.450Z,605.80
2022-08-07T22:17:04.075Z,673.90
2022-08-07T22:18:02.384Z,641.00
2022-08-07T22:19:02.399Z,702.20
2022-08-07T22:20:02.551Z,650.60
2022-08-07T22:21:02.370Z,627.50
2022-08-07T22:22:10.707Z,623.00
2022-08-07T22:23:03.293Z,654.40
2022-08-07T22:24:02.257Z,568.70
2022-08-07T22:25:02.252Z,566.50
2022-08-07T22:26:02.214Z,606.60
2022-08-07T22:27:02.219Z,633.90
2022-08-07T22:28:29.272Z,515.80
2022-08-07T22:29:03.178Z,577.70
2022-08-07T22:30:02.182Z,573.60
2022-08-07T22:31:05.113Z,577.60
2022-08-07T22:32:06.055Z,597.70
2022-08-07T22:33:02.214Z,598.00
2022-08-07T22:34:02.122Z,552.30
2022-08-07T22:35:02.352Z,482.70
2022-08-07T22:36:02.116Z,511.60
2022-08-07T22:37:02.120Z,542.80
2022-08-07T22:38:04.959Z,553.20
2022-08-07T22:39:02.104Z,514.70
2022-08-07T22:40:02.095Z,492.40
2022-08-07T22:41:02.966Z,513.30
2022-08-07T22:42:09.668Z,499.60
2022-08-07T22:43:03.083Z,468.00
2022-08-07T22:44:02.021Z,460.30
2022-08-07T22:45:03.779Z,401.50
2022-08-07T22:46:21.378Z,463.50
2022-08-07T22:47:06.537Z,455.40
2022-08-07T22:48:03.054Z,516.50
2022-08-07T22:49:09.453Z,500.90
2022-08-07T22:50:02.936Z,545.70
2022-08-07T22:51:01.936Z,572.00
2022-08-07T22:52:01.929Z,583.70
2022-08-07T22:53:01.950Z,514.90
2022-08-07T22:54:06.747Z,595.30
2022-08-07T22:55:17.135Z,633.80
2022-08-07T22:56:02.875Z,606.90
2022-08-07T22:57:01.868Z,664.80
2022-08-07T22:58:01.915Z,650.70
2022-08-07T22:59:01.846Z,632.10
2022-08-07T23:00:01.835Z,683.20
2022-08-07T23:01:01.815Z,656.10
2022-08-07T23:02:01.804Z,609.60
2022-08-07T23:03:01.905Z,598.40
2022-08-07T23:04:01.784Z,673.00
2022-08-07T23:06:09.378Z,702.60
2022-08-07T23:06:14.636Z,665.50
2022-08-07T23:07:02.740Z,668.30
2022-08-07T23:08:04.846Z,658.80
2022-08-07T23:10:06.536Z,636.10
2022-08-07T23:10:34.955Z,603.80
2022-08-07T23:11:04.522Z,567.90
2022-08-07T23:12:01.686Z,547.50
2022-08-07T23:13:01.735Z,593.60
2022-08-07T23:14:14.925Z,581.60
2022-08-07T23:15:02.677Z,625.10
2022-08-07T23:16:05.523Z,632.40
2022-08-07T23:17:02.635Z,608.30
2022-08-07T23:18:01.687Z,626.00
2022-08-07T23:19:01.643Z,628.80
2022-08-07T23:20:03.192Z,604.20
2022-08-07T23:21:01.637Z,601.90
2022-08-07T23:22:01.603Z,606.10
2022-08-07T23:23:01.608Z,618.50
2022-08-07T23:24:05.208Z,612.50
2022-08-07T23:25:02.553Z,611.90
2022-08-07T23:26:01.552Z,561.40
2022-08-07T23:27:01.559Z,599.30
2022-08-07T23:28:22.236Z,599.00
2022-08-07T23:29:02.518Z,598.60
2022-08-07T23:30:37.429Z,571.20
2022-08-07T23:31:06.544Z,583.10
2022-08-07T23:34:19.878Z,626.00
2022-08-07T23:34:21.275Z,599.80
2022-08-07T23:34:35.633Z,623.50
2022-08-07T23:35:02.443Z,587.90
2022-08-07T23:36:01.432Z,622.80
2022-08-07T23:37:19.111Z,608.10
2022-08-07T23:38:03.934Z,606.20
2022-08-07T23:39:01.452Z,610.70
2022-08-07T23:40:01.442Z,613.60
2022-08-07T23:41:01.379Z,615.30
2022-08-07T23:42:05.312Z,623.60
2022-08-07T23:43:01.421Z,607.40
2022-08-07T23:44:01.340Z,601.70
2022-08-07T23:45:01.340Z,619.90
2022-08-07T23:46:03.628Z,634.10
2022-08-07T23:47:02.324Z,621.00
2022-08-07T23:48:02.831Z,647.90
2022-08-07T23:49:01.285Z,651.80
2022-08-07T23:50:01.257Z,635.50
2022-08-07T23:51:01.250Z,599.60
2022-08-07T23:53:00.429Z,645.60
2022-08-07T23:53:06.560Z,588.80
2022-08-07T23:54:02.211Z,609.90
2022-08-07T23:55:01.214Z,577.20
2022-08-07T23:56:01.277Z,571.30
2022-08-07T23:57:01.211Z,595.10
2022-08-07T23:58:01.220Z,599.80
2022-08-07T23:59:10.781Z,586.30
